Madison, SD

10:05 PM CDT on April 27, 2017 (GMT -0500)
Madison Municipal

Weather History for KMDS - February, 2013

Change the Weather History Date:

Wednesday, February 20, 2013

  Actual Average Record
Temperature  
Mean Temperature 3 °F -  
Max Temperature 15 °F 31 °F 53 °F (2017)
Min Temperature -9 °F 12 °F -9 °F (2013)
Degree Days  
Heating Degree Days 62    
Moisture  
Dew Point 1 °F    
Average Humidity 90    
Maximum Humidity 100    
Minimum Humidity 78    
Precipitation  
Precipitation 0.00 in - - ()
Sea Level Pressure  
Sea Level Pressure 30.27 in    
Wind  
Wind Speed 10 mph (ESE)    
Max Wind Speed 16 mph    
Max Gust Speed 20 mph    
Visibility 10 miles    
Events      
Averages and records for this station are not official NWS values.
T = Trace of Precipitation, MM = Missing Value Source: NWS Daily Summary

Daily Weather History Graph

Daily Weather History Graph

Search for Another Location

Airport or City:

Trip Planner

Search our weather history database for the weather conditions in past years. The results will help you decide how hot, cold, wet, or windy it might be!

Date:

Astronomy

Feb. 20, 2013 Rise Set
Actual Time 7:19 AM CST 6:05 PM CST
Civil Twilight 6:50 AM CST 6:34 PM CST
Nautical Twilight 6:16 AM CST 7:08 PM CST
Astronomical Twilight 5:43 AM CST 7:41 PM CST
Moon 1:21 PM CST (2/20) 3:47 AM CST (2/20)
Length of Visible Light 11h 44m
Length of Day
10h 45m
Waxing Gibbous, 76% of the Moon is Illuminated
Feb 20
Waxing Gibbous
Feb 25
Full
Mar 4
Last Quarter
Mar 11
New
Mar 19
First Quarter

Hourly Weather History & Observations

Time (CST) Temp. Windchill Dew Point Humidity Pressure Visibility Wind Dir Wind Speed Gust Speed Precip Events Conditions
12:00 AM -5.8 °F -23.4 °F -7.6 °F 92% 30.34 in 10.0 mi NE 10.4 mph - N/A   Clear
12:20 AM -5.8 °F -23.4 °F -9.4 °F 84% 30.34 in 10.0 mi ENE 10.4 mph - N/A   Clear
12:40 AM -5.8 °F -22.4 °F -9.4 °F 84% 30.35 in 10.0 mi ENE 9.2 mph - N/A   Clear
1:00 AM -7.6 °F -25.7 °F -9.4 °F 92% 30.34 in 10.0 mi ENE 10.4 mph - N/A   Clear
1:20 AM -7.6 °F -24.6 °F -9.4 °F 92% 30.34 in 10.0 mi ENE 9.2 mph - N/A   Clear
1:40 AM -7.6 °F -20.6 °F -9.4 °F 92% 30.35 in 10.0 mi ENE 5.8 mph - N/A   Clear
2:00 AM -7.6 °F -24.6 °F -9.4 °F 92% 30.34 in 10.0 mi ENE 9.2 mph - N/A   Clear
2:20 AM -7.6 °F -18.8 °F -9.4 °F 92% 30.34 in 10.0 mi ENE 4.6 mph - N/A   Clear
2:40 AM -7.6 °F -23.4 °F -9.4 °F 92% 30.33 in 10.0 mi ENE 8.1 mph - N/A   Clear
3:00 AM -7.6 °F -25.7 °F -9.4 °F 92% 30.32 in 10.0 mi ENE 10.4 mph - N/A   Clear
3:20 AM -7.6 °F -27.5 °F -11.2 °F 84% 30.31 in 10.0 mi ENE 12.7 mph - N/A   Clear
3:40 AM -9.4 °F - -11.2 °F 92% 30.32 in 10.0 mi Calm Calm - N/A   Clear
4:00 AM -9.4 °F -18.6 °F -11.2 °F 92% 30.33 in 10.0 mi ESE 3.5 mph - N/A   Clear
4:20 AM -9.4 °F -22.7 °F -11.2 °F 92% 30.33 in 10.0 mi ENE 5.8 mph - N/A   Clear
4:40 AM -9.4 °F -22.7 °F -11.2 °F 92% 30.33 in 10.0 mi ENE 5.8 mph - N/A   Clear
5:00 AM -9.4 °F -20.9 °F -11.2 °F 92% 30.33 in 10.0 mi East 4.6 mph - N/A   Clear
5:20 AM -9.4 °F -18.6 °F -11.2 °F 92% 30.32 in 10.0 mi East 3.5 mph - N/A   Clear
6:00 AM -9.4 °F -22.7 °F -11.2 °F 92% 30.31 in 10.0 mi ENE 5.8 mph - N/A   Clear
6:20 AM -9.4 °F -28.9 °F -11.2 °F 92% 30.30 in 10.0 mi ENE 11.5 mph - N/A   Clear
6:40 AM -7.6 °F -25.7 °F -9.4 °F 92% 30.30 in 10.0 mi East 10.4 mph - N/A   Clear
7:00 AM -7.6 °F -23.4 °F -9.4 °F 92% 30.30 in 10.0 mi East 8.1 mph - N/A   Clear
7:20 AM -5.8 °F -21.2 °F -9.4 °F 84% 30.31 in 10.0 mi East 8.1 mph - N/A   Clear
8:00 AM -4.0 °F -21.2 °F -7.6 °F 85% 30.31 in 10.0 mi East 10.4 mph - N/A   Clear
8:20 AM -4.0 °F -21.2 °F -7.6 °F 85% 30.31 in 10.0 mi East 10.4 mph - N/A   Clear
9:00 AM -2.2 °F -18.0 °F -4.0 °F 92% 30.32 in 10.0 mi ESE 9.2 mph - N/A   Clear
9:20 AM -0.4 °F -16.7 °F -4.0 °F 85% 30.31 in 10.0 mi ESE 10.4 mph - N/A   Clear
9:40 AM -0.4 °F -16.7 °F -2.2 °F 92% 30.31 in 10.0 mi SE 10.4 mph - N/A   Partly Cloudy
10:00 AM 1.4 °F -16.9 °F -2.2 °F 85% 30.31 in 10.0 mi SE 13.8 mph - N/A   Mostly Cloudy
10:20 AM 1.4 °F -15.3 °F -0.4 °F 92% 30.31 in 10.0 mi SE 11.5 mph - N/A   Mostly Cloudy
11:00 AM 5.0 °F -10.8 °F -0.4 °F 78% 30.30 in 10.0 mi SE 11.5 mph - N/A   Mostly Cloudy
11:20 AM 5.0 °F -10.8 °F 1.4 °F 85% 30.30 in 10.0 mi SE 11.5 mph - N/A   Mostly Cloudy
11:40 AM 6.8 °F -7.8 °F 1.4 °F 79% 30.30 in 10.0 mi SE 10.4 mph - N/A   Mostly Cloudy
12:00 PM 6.8 °F -8.6 °F 3.2 °F 85% 30.31 in 10.0 mi SE 11.5 mph - N/A   Overcast
12:20 PM 8.6 °F -6.3 °F 5.0 °F 85% 30.31 in 10.0 mi SSE 11.5 mph - N/A   Overcast
12:40 PM 6.8 °F -8.6 °F 1.4 °F 79% 30.31 in 10.0 mi SSE 11.5 mph - N/A   Overcast
1:00 PM 8.6 °F -7.0 °F 5.0 °F 85% 30.30 in 10.0 mi SE 12.7 mph 18.4 mph N/A   Mostly Cloudy
1:20 PM 8.6 °F -7.0 °F 5.0 °F 85% 30.29 in 10.0 mi SE 12.7 mph - N/A   Mostly Cloudy
1:40 PM 10.4 °F -4.1 °F 6.8 °F 85% 30.27 in 10.0 mi SE 11.5 mph 18.4 mph N/A   Mostly Cloudy
2:00 PM 10.4 °F -4.8 °F 8.6 °F 92% 30.26 in 10.0 mi ESE 12.7 mph - N/A   Partly Cloudy
2:20 PM 14.0 °F -0.8 °F 8.6 °F 79% 30.25 in 10.0 mi ESE 13.8 mph - N/A   Scattered Clouds
2:40 PM 14.0 °F -0.8 °F 10.4 °F 86% 30.24 in 10.0 mi ESE 13.8 mph - N/A   Mostly Cloudy
3:00 PM 14.0 °F -1.4 °F 10.4 °F 86% 30.24 in 10.0 mi ESE 15.0 mph - N/A   Overcast
3:20 PM 15.8 °F 0.3 °F 10.4 °F 79% 30.24 in 10.0 mi SE 16.1 mph - N/A   Overcast
3:40 PM 15.8 °F 0.9 °F 10.4 °F 79% 30.23 in 10.0 mi ESE 15.0 mph - N/A   Overcast
4:00 PM 15.8 °F 0.3 °F 10.4 °F 79% 30.22 in 10.0 mi SE 16.1 mph 19.6 mph N/A   Overcast
4:20 PM 15.8 °F 1.4 °F 10.4 °F 79% 30.22 in 10.0 mi SE 13.8 mph - N/A   Overcast
4:40 PM 15.8 °F 0.9 °F 10.4 °F 79% 30.22 in 10.0 mi SE 15.0 mph - N/A   Overcast
5:00 PM 15.8 °F 0.9 °F 10.4 °F 79% 30.21 in 10.0 mi ESE 15.0 mph - N/A   Overcast
5:15 PM 15.8 °F 0.9 °F 10.4 °F 79% 30.21 in 10.0 mi ESE 15.0 mph - N/A   Overcast
5:40 PM 15.8 °F 0.3 °F 12.2 °F 86% 30.20 in 10.0 mi East 16.1 mph - N/A   Overcast
6:00 PM 15.8 °F 0.9 °F 12.2 °F 86% 30.20 in 10.0 mi East 15.0 mph - N/A   Overcast
6:20 PM 14.0 °F -1.4 °F 14.0 °F 100% 30.20 in 10.0 mi East 15.0 mph - N/A   Overcast
6:40 PM 14.0 °F -2.0 °F 14.0 °F 100% 30.20 in 10.0 mi East 16.1 mph - N/A   Overcast
7:00 PM 14.0 °F -2.0 °F 14.0 °F 100% 30.20 in 10.0 mi East 16.1 mph - N/A   Overcast
7:20 PM 14.0 °F -1.4 °F 14.0 °F 100% 30.20 in 10.0 mi East 15.0 mph - N/A   Overcast
7:40 PM 12.2 °F -4.3 °F 12.2 °F 100% 30.20 in 10.0 mi East 16.1 mph - N/A   Overcast
8:00 PM 12.2 °F -2.5 °F 12.2 °F 100% 30.21 in 10.0 mi ESE 12.7 mph - N/A   Overcast
8:20 PM 12.2 °F -3.7 °F 12.2 °F 100% 30.21 in 10.0 mi East 15.0 mph - N/A   Overcast
9:00 PM 10.4 °F -5.4 °F 10.4 °F 100% 30.21 in 10.0 mi ESE 13.8 mph - N/A   Overcast
9:20 PM 10.4 °F -4.8 °F 10.4 °F 100% 30.22 in 10.0 mi ESE 12.7 mph - N/A   Overcast
9:40 PM 10.4 °F -4.8 °F 10.4 °F 100% 30.22 in 10.0 mi East 12.7 mph - N/A   Overcast
10:00 PM 10.4 °F -4.1 °F 10.4 °F 100% 30.22 in 10.0 mi ESE 11.5 mph - N/A   Overcast
10:20 PM 8.6 °F -7.0 °F 8.6 °F 100% 30.22 in 10.0 mi ESE 12.7 mph - N/A   Overcast
10:40 PM 8.6 °F -7.0 °F 8.6 °F 100% 30.21 in 10.0 mi East 12.7 mph - N/A   Mostly Cloudy
11:00 PM 8.6 °F -6.3 °F 8.6 °F 100% 30.22 in 10.0 mi East 11.5 mph - N/A   Mostly Cloudy
11:20 PM 8.6 °F -6.3 °F 8.6 °F 100% 30.22 in 10.0 mi ESE 11.5 mph - N/A   Overcast
11:40 PM 8.6 °F -6.3 °F 8.6 °F 100% 30.22 in 10.0 mi ESE 11.5 mph - N/A   Overcast